createdAt,value
2023-02-27T00:02:28.616Z,4.10
2023-02-27T00:04:58.293Z,8.90
2023-02-27T00:07:29.051Z,3.30
2023-02-27T00:09:57.512Z,3.60
2023-02-27T00:12:26.019Z,3.60
2023-02-27T00:14:54.511Z,5.00
2023-02-27T00:17:26.041Z,3.70
2023-02-27T00:19:54.618Z,3.80
2023-02-27T00:22:23.105Z,9.90
2023-02-27T00:24:51.713Z,9.10
2023-02-27T00:27:20.225Z,4.70
2023-02-27T00:29:48.812Z,5.40
2023-02-27T00:32:17.456Z,9.50
2023-02-27T00:34:48.960Z,9.20
2023-02-27T00:39:46.104Z,5.80
2023-02-27T00:44:43.493Z,7.40
2023-02-27T00:49:41.321Z,8.00
2023-02-27T00:54:38.634Z,6.40
2023-02-27T00:57:07.428Z,10.60
2023-02-27T01:02:04.233Z,6.70
2023-02-27T01:04:32.779Z,9.20
2023-02-27T01:07:01.265Z,7.00
2023-02-27T01:09:29.799Z,5.90
2023-02-27T01:11:58.502Z,6.10
2023-02-27T01:14:27.124Z,5.80
2023-02-27T01:16:55.683Z,4.90
2023-02-27T01:19:25.404Z,5.80
2023-02-27T01:21:54.046Z,5.60
2023-02-27T01:26:52.866Z,4.60
2023-02-27T01:29:21.441Z,4.50
2023-02-27T01:31:50.551Z,6.30
2023-02-27T01:34:19.113Z,4.60
2023-02-27T01:36:47.601Z,4.80
2023-02-27T01:39:17.706Z,4.80
2023-02-27T01:41:46.691Z,3.90
2023-02-27T01:46:44.382Z,2.80
2023-02-27T01:49:24.320Z,6.80
2023-02-27T01:52:02.121Z,4.80
2023-02-27T01:54:35.409Z,6.50
2023-02-27T01:57:07.599Z,3.60
2023-02-27T01:59:39.845Z,2.90
2023-02-27T02:02:23.874Z,2.00
2023-02-27T02:04:55.261Z,3.60
2023-02-27T02:07:25.585Z,3.80
2023-02-27T02:09:57.347Z,2.40
2023-02-27T02:12:30.263Z,5.70
2023-02-27T02:14:58.780Z,6.30
2023-02-27T02:17:45.754Z,4.60
2023-02-27T02:20:45.824Z,3.80
2023-02-27T02:23:24.954Z,3.30
2023-02-27T02:26:12.155Z,3.30
2023-02-27T02:29:01.221Z,2.40
2023-02-27T02:31:32.787Z,3.80
2023-02-27T02:34:08.473Z,7.50
2023-02-27T02:36:58.306Z,4.30
2023-02-27T02:39:32.885Z,3.50
2023-02-27T02:42:04.421Z,6.30
2023-02-27T02:44:39.256Z,5.70
2023-02-27T02:47:17.015Z,7.10
2023-02-27T02:53:00.858Z,11.10
2023-02-27T02:55:42.665Z,8.20
2023-02-27T02:58:22.723Z,11.70
2023-02-27T03:01:22.856Z,6.90
2023-02-27T03:04:04.963Z,6.20
2023-02-27T03:06:38.991Z,4.10
2023-02-27T03:09:17.287Z,2.10
2023-02-27T03:11:49.161Z,2.30
2023-02-27T03:14:43.297Z,2.70
2023-02-27T03:17:19.721Z,5.50
2023-02-27T03:20:04.011Z,6.70
2023-02-27T03:22:38.412Z,7.60
2023-02-27T03:25:11.213Z,8.10
2023-02-27T03:27:54.122Z,11.40
2023-02-27T03:30:35.516Z,9.30
2023-02-27T03:33:27.994Z,14.10
2023-02-27T03:36:05.700Z,17.90
2023-02-27T03:38:42.239Z,11.50
2023-02-27T03:41:26.507Z,14.50
2023-02-27T03:44:14.460Z,11.00
2023-02-27T03:46:43.091Z,9.40
2023-02-27T03:49:11.844Z,10.20
2023-02-27T03:51:40.560Z,20.00
2023-02-27T03:54:11.747Z,18.00
2023-02-27T03:57:03.970Z,17.10
2023-02-27T03:59:34.137Z,6.20
2023-02-27T04:02:04.077Z,8.00
2023-02-27T04:04:34.000Z,5.30
2023-02-27T04:07:33.906Z,4.40
2023-02-27T04:10:11.806Z,5.30
2023-02-27T04:13:08.453Z,8.30
2023-02-27T04:16:19.456Z,3.60
2023-02-27T04:19:10.372Z,8.30
2023-02-27T04:21:57.441Z,4.90
2023-02-27T04:24:31.828Z,7.10
2023-02-27T04:27:18.789Z,7.60
2023-02-27T04:30:16.997Z,26.50
2023-02-27T04:33:00.554Z,8.30
2023-02-27T04:35:40.070Z,5.40
2023-02-27T04:38:28.883Z,5.20
2023-02-27T04:43:36.116Z,4.40
2023-02-27T04:46:07.307Z,4.80
2023-02-27T04:48:48.327Z,7.00
2023-02-27T04:51:22.121Z,5.90
2023-02-27T04:54:00.788Z,6.60
2023-02-27T04:56:35.033Z,8.80
2023-02-27T04:59:27.554Z,8.40
2023-02-27T05:02:00.177Z,5.80
2023-02-27T05:04:33.376Z,7.30
2023-02-27T05:07:03.493Z,10.30
2023-02-27T05:09:51.597Z,6.90
2023-02-27T05:12:27.306Z,9.60
2023-02-27T05:15:13.684Z,6.60
2023-02-27T05:17:47.260Z,5.30
2023-02-27T05:20:17.674Z,5.50
2023-02-27T05:23:00.055Z,6.40
2023-02-27T05:25:49.928Z,16.00
2023-02-27T05:28:38.260Z,9.00
2023-02-27T05:31:23.510Z,4.90
2023-02-27T05:34:04.365Z,5.40
2023-02-27T05:36:46.335Z,8.60
2023-02-27T05:39:19.652Z,10.00
2023-02-27T05:41:56.932Z,12.50
2023-02-27T05:44:35.597Z,19.10
2023-02-27T05:47:13.151Z,11.20
2023-02-27T05:49:44.190Z,18.40
2023-02-27T05:52:17.706Z,10.00
2023-02-27T05:54:57.196Z,10.20
2023-02-27T05:58:04.985Z,8.00
2023-02-27T06:00:38.920Z,7.20
2023-02-27T06:03:07.773Z,8.70
2023-02-27T06:05:39.967Z,11.90
2023-02-27T06:08:08.601Z,16.60
2023-02-27T06:10:38.393Z,10.50
2023-02-27T06:13:07.057Z,16.20
2023-02-27T06:15:35.832Z,17.90
2023-02-27T06:18:04.931Z,16.80
2023-02-27T06:35:25.742Z,16.20
2023-02-27T06:37:54.315Z,14.40
2023-02-27T06:42:52.307Z,15.80
2023-02-27T06:47:49.983Z,14.60
2023-02-27T06:50:18.872Z,17.20
2023-02-27T06:55:20.528Z,30.20
2023-02-27T06:57:49.958Z,22.90
2023-02-27T07:00:19.151Z,20.00
2023-02-27T07:02:47.664Z,19.70
2023-02-27T07:05:16.304Z,25.40
2023-02-27T07:07:44.792Z,22.50
2023-02-27T07:10:14.541Z,17.30
2023-02-27T07:12:42.621Z,16.30
2023-02-27T07:15:11.506Z,9.70
2023-02-27T07:20:10.766Z,23.90
2023-02-27T07:22:40.335Z,19.10
2023-02-27T07:25:09.565Z,13.10
2023-02-27T07:27:37.720Z,14.10
2023-02-27T07:30:06.535Z,17.90
2023-02-27T07:32:34.664Z,27.80
2023-02-27T07:35:04.041Z,21.40
2023-02-27T07:37:32.349Z,13.20
2023-02-27T07:40:00.428Z,15.20
2023-02-27T07:42:28.821Z,14.70
2023-02-27T07:44:56.901Z,19.30
2023-02-27T07:47:25.320Z,17.90
2023-02-27T07:49:53.652Z,21.90
2023-02-27T07:52:21.832Z,19.30
2023-02-27T07:54:50.138Z,43.80
2023-02-27T07:57:18.664Z,18.40
2023-02-27T07:59:48.470Z,9.70
2023-02-27T08:02:16.729Z,12.90
2023-02-27T08:04:45.870Z,25.20
2023-02-27T08:07:14.047Z,30.90
2023-02-27T08:09:42.109Z,38.10
2023-02-27T08:12:10.203Z,31.00
2023-02-27T08:14:39.036Z,43.30
2023-02-27T08:17:08.269Z,28.00
2023-02-27T08:19:36.497Z,21.60
2023-02-27T08:22:04.675Z,22.20
2023-02-27T08:24:32.713Z,15.10
2023-02-27T08:27:00.956Z,12.20
2023-02-27T08:29:31.061Z,9.20
2023-02-27T08:32:00.457Z,8.90
2023-02-27T08:34:30.313Z,10.10
2023-02-27T08:36:59.277Z,13.40
2023-02-27T08:41:55.579Z,8.50
2023-02-27T08:44:23.746Z,11.10
2023-02-27T08:46:52.573Z,9.80
2023-02-27T08:51:52.117Z,10.30
2023-02-27T08:54:20.878Z,7.60
2023-02-27T08:59:17.237Z,15.10
2023-02-27T09:01:45.348Z,15.70
2023-02-27T09:04:13.635Z,12.30
2023-02-27T09:06:41.856Z,9.10
2023-02-27T09:09:10.463Z,15.20
2023-02-27T09:11:38.971Z,8.50
2023-02-27T09:14:07.990Z,10.80
2023-02-27T09:19:04.861Z,3.50
2023-02-27T09:24:17.137Z,4.60
2023-02-27T09:26:48.016Z,5.90
2023-02-27T09:29:16.627Z,4.80
2023-02-27T09:31:45.019Z,6.30
2023-02-27T09:34:13.333Z,4.20
2023-02-27T09:36:41.621Z,4.10
2023-02-27T09:39:10.779Z,4.60
2023-02-27T09:41:42.234Z,5.70
2023-02-27T09:44:39.756Z,7.80
2023-02-27T09:47:26.596Z,6.90
2023-02-27T09:50:08.059Z,7.30
2023-02-27T09:52:37.825Z,3.60
2023-02-27T09:55:15.423Z,8.40
2023-02-27T09:57:49.734Z,7.80
2023-02-27T10:00:38.423Z,10.70
2023-02-27T10:03:33.883Z,10.70
2023-02-27T10:06:26.650Z,5.70
2023-02-27T10:09:01.135Z,11.80
2023-02-27T10:11:43.593Z,10.40
2023-02-27T10:14:42.980Z,9.10
2023-02-27T10:17:22.630Z,9.50
2023-02-27T10:19:52.939Z,10.20
2023-02-27T10:22:33.926Z,6.90
2023-02-27T10:25:30.222Z,11.40
2023-02-27T10:28:11.248Z,58.00
2023-02-27T10:30:39.984Z,78.40
2023-02-27T10:35:56.882Z,10.60
2023-02-27T10:39:00.286Z,12.70
2023-02-27T10:41:29.673Z,7.30
2023-02-27T10:44:00.202Z,4.10
2023-02-27T10:46:31.656Z,8.50
2023-02-27T10:49:01.905Z,6.70
2023-02-27T10:51:35.100Z,10.00
2023-02-27T10:54:23.820Z,6.30
2023-02-27T10:56:55.874Z,6.30
2023-02-27T10:59:37.521Z,5.80
2023-02-27T11:02:20.960Z,5.60
2023-02-27T11:04:56.666Z,4.30
2023-02-27T11:07:39.309Z,7.30
2023-02-27T11:10:13.530Z,8.60
2023-02-27T11:12:57.572Z,10.40
2023-02-27T11:15:30.178Z,5.60
2023-02-27T11:18:29.433Z,6.00
2023-02-27T11:21:29.145Z,9.20
2023-02-27T11:24:19.299Z,38.10
2023-02-27T11:27:05.464Z,12.50
2023-02-27T11:29:34.989Z,7.30
2023-02-27T11:32:22.131Z,20.40
2023-02-27T11:34:52.485Z,6.00
2023-02-27T11:37:37.121Z,7.60
2023-02-27T11:40:13.016Z,5.90
2023-02-27T11:42:51.213Z,11.20
2023-02-27T11:46:13.251Z,11.00
2023-02-27T11:48:23.673Z,9.50
2023-02-27T11:50:58.082Z,7.90
2023-02-27T11:53:44.811Z,32.40
2023-02-27T11:56:24.193Z,311.00
2023-02-27T11:59:04.528Z,253.30
2023-02-27T12:01:43.824Z,59.40
2023-02-27T12:04:24.228Z,51.20
2023-02-27T12:07:00.210Z,14.60
2023-02-27T12:09:43.120Z,8.30
2023-02-27T12:12:26.727Z,12.70
2023-02-27T12:15:05.540Z,13.20
2023-02-27T12:18:20.479Z,14.70
2023-02-27T12:20:55.759Z,8.10
2023-02-27T12:23:41.532Z,11.20
2023-02-27T12:26:31.923Z,7.80
2023-02-27T12:29:31.221Z,9.90
2023-02-27T12:32:10.377Z,22.60
2023-02-27T12:34:52.156Z,8.60
2023-02-27T12:37:25.093Z,19.70
2023-02-27T12:39:58.336Z,13.80
2023-02-27T12:42:36.246Z,14.60
2023-02-27T12:45:26.880Z,16.20
2023-02-27T12:48:09.908Z,26.40
2023-02-27T12:51:20.264Z,32.40
2023-02-27T12:54:13.025Z,28.80
2023-02-27T12:57:07.458Z,39.90
2023-02-27T13:00:06.781Z,61.10
2023-02-27T13:02:45.976Z,69.60
2023-02-27T13:05:24.984Z,20.30
2023-02-27T13:08:04.006Z,57.50
2023-02-27T13:10:40.781Z,16.30
2023-02-27T13:13:37.789Z,19.40
2023-02-27T13:16:33.524Z,16.10
2023-02-27T13:19:27.096Z,22.90
2023-02-27T13:22:16.189Z,13.80
2023-02-27T13:24:51.022Z,15.80
2023-02-27T13:27:25.335Z,18.60
2023-02-27T13:30:14.379Z,15.20
2023-02-27T13:32:54.576Z,16.40
2023-02-27T13:35:39.292Z,16.50
2023-02-27T13:38:29.547Z,20.60
2023-02-27T13:40:57.958Z,16.00
2023-02-27T13:43:43.317Z,13.20
2023-02-27T13:46:25.386Z,14.60
2023-02-27T13:48:54.827Z,16.70
2023-02-27T13:51:34.979Z,19.70
2023-02-27T13:54:15.229Z,16.70
2023-02-27T13:56:47.047Z,22.10
2023-02-27T13:59:34.260Z,12.30
2023-02-27T14:02:05.100Z,13.30
2023-02-27T14:04:36.989Z,11.90
2023-02-27T14:07:10.901Z,19.30
2023-02-27T14:09:42.667Z,14.20
2023-02-27T14:12:43.729Z,10.90
2023-02-27T14:15:22.515Z,18.20
2023-02-27T14:18:09.575Z,18.70
2023-02-27T14:23:17.003Z,11.60
2023-02-27T14:25:54.803Z,10.90
2023-02-27T14:28:51.789Z,14.10
2023-02-27T14:31:31.216Z,12.30
2023-02-27T14:34:06.040Z,15.00
2023-02-27T14:36:58.327Z,12.30
2023-02-27T14:39:35.586Z,12.30
2023-02-27T14:42:24.133Z,13.20
2023-02-27T14:47:27.190Z,16.20
2023-02-27T14:49:56.328Z,15.00
2023-02-27T14:52:29.837Z,46.50
2023-02-27T14:55:22.004Z,16.80
2023-02-27T14:57:55.193Z,20.00
2023-02-27T15:00:58.516Z,15.20
2023-02-27T15:03:38.978Z,27.50
2023-02-27T15:06:17.772Z,31.90
2023-02-27T15:08:52.386Z,47.50
2023-02-27T15:11:23.023Z,12.40
2023-02-27T15:14:01.528Z,23.00
2023-02-27T15:16:40.966Z,28.00
2023-02-27T15:19:17.645Z,16.50
2023-02-27T15:21:51.458Z,26.00
2023-02-27T15:24:40.582Z,16.80
2023-02-27T15:27:23.429Z,16.10
2023-02-27T15:29:57.178Z,18.50
2023-02-27T15:32:33.452Z,20.10
2023-02-27T15:35:05.500Z,23.90
2023-02-27T15:37:34.407Z,59.90
2023-02-27T15:40:06.027Z,32.00
2023-02-27T15:42:37.658Z,24.00
2023-02-27T15:45:07.720Z,21.30
2023-02-27T15:47:36.088Z,20.90
2023-02-27T15:50:12.416Z,19.00
2023-02-27T15:52:55.318Z,31.40
2023-02-27T15:55:31.252Z,23.50
2023-02-27T15:58:03.346Z,13.60
2023-02-27T16:00:35.283Z,14.40
2023-02-27T16:03:07.142Z,16.90
2023-02-27T16:05:41.638Z,16.00
2023-02-27T16:08:18.711Z,17.70
2023-02-27T16:10:47.782Z,13.80
2023-02-27T16:13:25.197Z,13.00
2023-02-27T16:16:26.696Z,15.60
2023-02-27T16:18:58.443Z,31.10
2023-02-27T16:21:31.183Z,35.90
2023-02-27T16:24:19.223Z,15.70
2023-02-27T16:26:53.162Z,9.40
2023-02-27T16:29:33.918Z,9.00
2023-02-27T16:32:03.860Z,9.60
2023-02-27T16:34:45.547Z,13.80
2023-02-27T16:37:27.197Z,24.90
2023-02-27T16:39:55.250Z,20.50
2023-02-27T16:42:23.359Z,30.60
2023-02-27T16:44:51.614Z,26.60
2023-02-27T16:47:19.672Z,34.40
2023-02-27T16:49:49.637Z,30.10
2023-02-27T16:52:18.012Z,28.40
2023-02-27T16:54:46.281Z,21.90
2023-02-27T16:57:14.460Z,32.80
2023-02-27T16:59:44.143Z,43.30
2023-02-27T17:02:15.039Z,41.20
2023-02-27T17:04:44.516Z,27.20
2023-02-27T17:07:18.859Z,22.90
2023-02-27T17:09:47.717Z,29.90
2023-02-27T17:12:15.795Z,28.00
2023-02-27T17:14:44.053Z,23.40
2023-02-27T17:17:12.261Z,19.70
2023-02-27T17:19:40.806Z,18.00
2023-02-27T17:22:08.896Z,26.60
2023-02-27T17:24:38.530Z,34.20
2023-02-27T17:27:06.894Z,27.30
2023-02-27T17:29:36.784Z,27.50
2023-02-27T17:32:05.226Z,24.90
2023-02-27T17:34:33.403Z,22.40
2023-02-27T17:37:01.657Z,36.20
2023-02-27T17:39:29.789Z,31.90
2023-02-27T17:41:58.292Z,19.20
2023-02-27T17:44:27.100Z,19.90
2023-02-27T17:49:23.317Z,14.60
2023-02-27T17:51:51.637Z,16.80
2023-02-27T17:54:19.752Z,20.30
2023-02-27T17:56:47.777Z,22.10
2023-02-27T17:59:16.047Z,24.10
2023-02-27T18:01:44.087Z,25.40
2023-02-27T18:04:12.963Z,23.70
2023-02-27T18:09:09.061Z,17.70
2023-02-27T18:11:37.621Z,20.00
2023-02-27T18:14:06.221Z,16.20
2023-02-27T18:16:35.698Z,22.90
2023-02-27T18:19:06.125Z,18.00
2023-02-27T18:21:35.177Z,26.30
2023-02-27T18:24:03.839Z,25.50
2023-02-27T18:26:33.258Z,22.80
2023-02-27T18:29:05.333Z,18.10
2023-02-27T18:31:39.863Z,19.50
2023-02-27T18:34:08.479Z,23.20
2023-02-27T18:36:37.443Z,22.50
2023-02-27T18:39:06.314Z,24.60
2023-02-27T18:46:32.768Z,21.60
2023-02-27T18:49:01.557Z,23.90
2023-02-27T18:51:30.115Z,27.50
2023-02-27T18:54:00.830Z,23.10
2023-02-27T18:56:31.030Z,18.60
2023-02-27T18:59:05.088Z,20.30
2023-02-27T19:01:36.707Z,23.90
2023-02-27T19:04:07.355Z,21.60
2023-02-27T19:06:41.186Z,26.90
2023-02-27T19:09:13.041Z,23.20
2023-02-27T19:11:41.182Z,29.60
2023-02-27T19:14:13.490Z,20.90
2023-02-27T19:16:41.843Z,21.40
2023-02-27T19:19:10.953Z,23.90
2023-02-27T19:21:41.012Z,12.20
2023-02-27T19:24:12.154Z,10.90
2023-02-27T19:26:42.648Z,21.30
2023-02-27T19:29:10.738Z,20.30
2023-02-27T19:31:38.891Z,14.60
2023-02-27T19:34:07.090Z,26.50
2023-02-27T19:36:35.137Z,24.90
2023-02-27T19:39:04.235Z,29.10
2023-02-27T19:41:33.592Z,29.30
2023-02-27T19:44:02.133Z,27.00
2023-02-27T19:46:33.758Z,28.30
2023-02-27T19:49:04.921Z,28.00
2023-02-27T19:51:33.218Z,27.30
2023-02-27T19:54:01.288Z,31.50
2023-02-27T19:56:30.027Z,34.20
2023-02-27T19:59:00.948Z,29.10
2023-02-27T20:01:38.950Z,26.80
2023-02-27T20:04:07.959Z,29.90
2023-02-27T20:06:42.148Z,11.50
2023-02-27T20:09:14.630Z,10.40
2023-02-27T20:11:44.722Z,8.10
2023-02-27T20:14:14.433Z,11.40
2023-02-27T20:16:42.603Z,12.00
2023-02-27T20:19:14.050Z,9.70
2023-02-27T20:21:43.239Z,17.20
2023-02-27T20:24:11.670Z,12.70
2023-02-27T20:26:50.810Z,9.80
2023-02-27T20:29:22.218Z,16.60
2023-02-27T20:31:52.760Z,18.50
2023-02-27T20:34:26.324Z,19.80
2023-02-27T20:36:55.858Z,17.40
2023-02-27T20:39:24.872Z,19.60
2023-02-27T20:41:52.938Z,14.90
2023-02-27T20:44:21.077Z,17.90
2023-02-27T20:46:49.634Z,17.80
2023-02-27T20:51:46.666Z,22.70
2023-02-27T20:56:52.583Z,16.60
2023-02-27T20:59:24.755Z,20.40
2023-02-27T21:01:53.837Z,18.60
2023-02-27T21:04:43.371Z,12.40
2023-02-27T21:07:14.369Z,11.60
2023-02-27T21:09:42.945Z,9.70
2023-02-27T21:12:11.896Z,11.50
2023-02-27T21:17:08.062Z,12.10
2023-02-27T21:19:38.107Z,8.80
2023-02-27T21:22:06.311Z,11.00
2023-02-27T21:24:34.342Z,10.50
2023-02-27T21:27:02.383Z,10.60
2023-02-27T21:29:30.416Z,12.60
2023-02-27T21:31:59.021Z,12.70
2023-02-27T21:34:28.359Z,18.80
2023-02-27T21:36:56.593Z,14.80
2023-02-27T21:39:28.516Z,13.00
2023-02-27T21:41:56.929Z,20.40
2023-02-27T21:44:25.395Z,26.90
2023-02-27T21:46:54.337Z,19.80
2023-02-27T21:49:25.702Z,19.00
2023-02-27T21:51:54.672Z,18.50
2023-02-27T21:54:23.358Z,15.50
2023-02-27T21:56:51.598Z,19.20
2023-02-27T21:59:21.700Z,19.00
2023-02-27T22:01:49.947Z,16.40
2023-02-27T22:04:19.857Z,15.50
2023-02-27T22:06:49.980Z,14.60
2023-02-27T22:09:19.427Z,13.20
2023-02-27T22:11:48.533Z,15.30
2023-02-27T22:14:16.836Z,13.70
2023-02-27T22:16:45.004Z,10.30
2023-02-27T22:19:22.165Z,9.30
2023-02-27T22:21:50.258Z,13.00
2023-02-27T22:24:18.582Z,13.50
2023-02-27T22:26:47.914Z,12.60
2023-02-27T22:29:17.240Z,17.00
2023-02-27T22:31:46.122Z,16.10
2023-02-27T22:34:18.599Z,16.50
2023-02-27T22:36:52.734Z,13.90
2023-02-27T22:39:21.516Z,11.40
2023-02-27T22:41:49.738Z,10.30
2023-02-27T22:44:19.588Z,14.00
2023-02-27T22:46:49.745Z,15.00
2023-02-27T22:49:20.701Z,19.10
2023-02-27T22:51:51.264Z,14.60
2023-02-27T22:54:22.920Z,13.30
2023-02-27T22:56:53.094Z,13.00
2023-02-27T22:59:21.635Z,12.40
2023-02-27T23:01:50.532Z,11.40
2023-02-27T23:04:18.901Z,14.30
2023-02-27T23:06:47.162Z,11.50
2023-02-27T23:09:18.421Z,13.80
2023-02-27T23:11:46.602Z,11.60
2023-02-27T23:14:15.314Z,14.40
2023-02-27T23:19:17.799Z,13.80
2023-02-27T23:21:45.955Z,12.20
2023-02-27T23:24:17.560Z,15.90
2023-02-27T23:26:48.827Z,21.40
2023-02-27T23:29:17.252Z,13.60
2023-02-27T23:31:45.810Z,16.60
2023-02-27T23:34:14.098Z,11.50
2023-02-27T23:36:42.240Z,13.90
2023-02-27T23:39:10.443Z,11.20
2023-02-27T23:41:38.580Z,14.70
2023-02-27T23:44:25.516Z,12.60
2023-02-27T23:46:53.595Z,14.10
2023-02-27T23:49:21.783Z,12.90
2023-02-27T23:51:50.015Z,12.80
2023-02-27T23:54:18.355Z,14.40
2023-02-27T23:56:48.397Z,21.70
2023-02-27T23:59:16.401Z,16.90
